createdAt,value
2022-10-18T00:00:05.856Z,17.35
2022-10-18T00:02:32.408Z,17.33
2022-10-18T00:04:58.892Z,17.42
2022-10-18T00:07:25.350Z,17.38
2022-10-18T00:09:51.796Z,17.37
2022-10-18T00:12:18.285Z,17.33
2022-10-18T00:14:44.765Z,17.31
2022-10-18T00:17:11.200Z,17.27
2022-10-18T00:19:37.622Z,17.30
2022-10-18T00:22:04.283Z,17.39
2022-10-18T00:24:30.771Z,17.28
2022-10-18T00:26:57.214Z,17.24
2022-10-18T00:29:23.688Z,17.33
2022-10-18T00:31:50.115Z,17.40
2022-10-18T00:34:16.866Z,17.40
2022-10-18T00:36:45.117Z,17.36
2022-10-18T00:39:17.434Z,17.42
2022-10-18T00:41:44.355Z,17.43
2022-10-18T00:44:10.695Z,17.42
2022-10-18T00:46:39.601Z,17.45
2022-10-18T00:49:19.955Z,17.49
2022-10-18T00:51:49.287Z,17.46
2022-10-18T00:54:16.820Z,17.39
2022-10-18T00:56:44.876Z,17.45
2022-10-18T00:59:12.416Z,17.37
2022-10-18T01:01:38.967Z,17.38
2022-10-18T01:04:05.526Z,17.29
2022-10-18T01:06:32.631Z,17.19
2022-10-18T01:09:12.894Z,17.24
2022-10-18T01:12:04.213Z,17.23
2022-10-18T01:14:45.423Z,17.27
2022-10-18T01:17:55.269Z,17.26
2022-10-18T01:20:43.387Z,17.23
2022-10-18T01:23:19.291Z,17.20
2022-10-18T01:26:07.517Z,17.15
2022-10-18T01:29:03.381Z,17.09
2022-10-18T01:31:54.279Z,17.12
2022-10-18T01:34:25.860Z,17.07
2022-10-18T01:36:54.181Z,16.99
2022-10-18T01:39:28.157Z,17.02
2022-10-18T01:41:56.432Z,16.97
2022-10-18T01:44:25.189Z,17.01
2022-10-18T01:46:53.529Z,17.08
2022-10-18T01:49:20.007Z,17.01
2022-10-18T01:51:46.551Z,17.00
2022-10-18T01:54:17.453Z,16.79
2022-10-18T01:57:01.318Z,16.80
2022-10-18T01:59:39.436Z,16.84
2022-10-18T02:02:17.994Z,16.80
2022-10-18T02:04:52.095Z,16.71
2022-10-18T02:07:32.941Z,16.67
2022-10-18T02:10:09.158Z,16.58
2022-10-18T02:12:37.514Z,16.64
2022-10-18T02:15:05.391Z,16.55
2022-10-18T02:17:32.339Z,16.51
2022-10-18T02:20:00.254Z,16.51
2022-10-18T02:22:29.830Z,16.48
2022-10-18T02:24:57.633Z,16.41
2022-10-18T02:27:24.099Z,16.43
2022-10-18T02:29:50.884Z,16.47
2022-10-18T02:32:35.171Z,16.51
2022-10-18T02:35:07.877Z,16.42
2022-10-18T02:37:38.100Z,16.36
2022-10-18T02:40:07.165Z,16.41
2022-10-18T02:42:38.982Z,16.44
2022-10-18T02:45:06.556Z,16.45
2022-10-18T02:47:33.250Z,16.33
2022-10-18T02:49:59.949Z,16.34
2022-10-18T02:52:26.371Z,16.28
2022-10-18T02:54:52.794Z,16.14
2022-10-18T02:57:19.301Z,16.14
2022-10-18T02:59:45.735Z,16.12
2022-10-18T03:02:12.184Z,16.16
2022-10-18T03:04:38.687Z,16.20
2022-10-18T03:07:05.141Z,16.12
2022-10-18T03:09:31.631Z,16.10
2022-10-18T03:11:58.100Z,16.19
2022-10-18T03:14:24.583Z,16.10
2022-10-18T03:16:51.042Z,16.06
2022-10-18T03:19:17.490Z,16.06
2022-10-18T03:21:43.919Z,16.06
2022-10-18T03:24:10.389Z,15.95
2022-10-18T03:26:36.849Z,16.04
2022-10-18T03:29:04.622Z,16.01
2022-10-18T03:34:02.774Z,15.89
2022-10-18T03:36:29.200Z,16.03
2022-10-18T03:38:55.657Z,15.91
2022-10-18T03:41:22.224Z,15.91
2022-10-18T03:43:48.661Z,15.91
2022-10-18T03:46:15.085Z,15.91
2022-10-18T03:48:41.585Z,15.99
2022-10-18T03:51:08.023Z,16.00
2022-10-18T03:53:34.456Z,15.92
2022-10-18T03:56:00.946Z,15.93
2022-10-18T03:58:27.461Z,15.77
2022-10-18T04:00:54.904Z,15.80
2022-10-18T04:03:22.256Z,15.81
2022-10-18T04:05:49.697Z,15.89
2022-10-18T04:08:16.374Z,15.89
2022-10-18T04:10:43.438Z,15.82
2022-10-18T04:13:09.985Z,15.82
2022-10-18T04:15:36.500Z,15.87
2022-10-18T04:18:03.137Z,15.81
2022-10-18T04:20:29.568Z,15.82
2022-10-18T04:22:57.614Z,15.78
2022-10-18T04:25:24.923Z,15.74
2022-10-18T04:27:51.520Z,15.74
2022-10-18T04:30:20.698Z,15.66
2022-10-18T04:32:47.367Z,15.75
2022-10-18T04:35:13.816Z,15.75
2022-10-18T04:37:40.345Z,15.74
2022-10-18T04:40:07.371Z,15.66
2022-10-18T04:42:33.794Z,15.53
2022-10-18T04:45:00.272Z,15.56
2022-10-18T04:47:26.804Z,15.53
2022-10-18T04:49:53.226Z,15.37
2022-10-18T04:52:20.195Z,15.51
2022-10-18T04:54:46.675Z,15.68
2022-10-18T04:57:13.858Z,15.61
2022-10-18T04:59:40.301Z,15.61
2022-10-18T05:02:06.781Z,15.61
2022-10-18T05:04:33.321Z,15.53
2022-10-18T05:06:59.837Z,15.45
2022-10-18T05:09:26.477Z,15.45
2022-10-18T05:11:52.932Z,15.32
2022-10-18T05:14:19.431Z,15.43
2022-10-18T05:16:45.902Z,15.72
2022-10-18T05:19:12.402Z,15.55
2022-10-18T05:21:38.840Z,15.60
2022-10-18T05:24:05.512Z,15.49
2022-10-18T05:26:31.987Z,15.51
2022-10-18T05:28:58.708Z,15.55
2022-10-18T05:31:25.199Z,15.58
2022-10-18T05:33:51.672Z,15.73
2022-10-18T05:36:18.106Z,15.66
2022-10-18T05:38:45.530Z,15.49
2022-10-18T05:41:12.567Z,15.59
2022-10-18T05:43:39.906Z,15.66
2022-10-18T05:46:13.467Z,15.66
2022-10-18T05:48:41.606Z,15.58
2022-10-18T05:51:08.405Z,15.39
2022-10-18T05:53:37.200Z,15.54
2022-10-18T05:56:04.939Z,15.51
2022-10-18T05:58:31.386Z,15.40
2022-10-18T06:01:02.210Z,15.53
2022-10-18T06:03:30.950Z,15.52
2022-10-18T06:06:09.384Z,15.48
2022-10-18T06:08:36.711Z,15.38
2022-10-18T06:11:11.504Z,15.49
2022-10-18T06:13:45.920Z,15.67
2022-10-18T06:16:13.787Z,15.57
2022-10-18T06:18:43.163Z,15.51
2022-10-18T06:21:10.124Z,15.43
2022-10-18T06:23:36.587Z,15.81
2022-10-18T06:26:06.027Z,15.84
2022-10-18T06:28:34.612Z,15.60
2022-10-18T06:31:01.176Z,15.79
2022-10-18T06:33:27.618Z,15.98
2022-10-18T06:35:58.893Z,15.85
2022-10-18T06:38:26.038Z,15.49
2022-10-18T06:40:52.871Z,15.47
2022-10-18T06:43:21.516Z,15.45
2022-10-18T06:45:48.774Z,15.39
2022-10-18T06:48:15.828Z,15.48
2022-10-18T06:50:42.530Z,15.37
2022-10-18T06:53:09.735Z,15.67
2022-10-18T06:55:36.264Z,15.54
2022-10-18T06:58:02.737Z,15.45
2022-10-18T07:00:29.244Z,15.54
2022-10-18T07:02:57.163Z,15.49
2022-10-18T07:05:23.724Z,15.50
2022-10-18T07:07:54.177Z,15.55
2022-10-18T07:10:23.413Z,15.53
2022-10-18T07:12:51.535Z,15.54
2022-10-18T07:15:18.159Z,15.62
2022-10-18T07:17:47.869Z,15.54
2022-10-18T07:20:17.029Z,15.46
2022-10-18T07:22:43.544Z,15.51
2022-10-18T07:25:09.970Z,15.54
2022-10-18T07:27:41.729Z,15.42
2022-10-18T07:30:10.007Z,15.57
2022-10-18T07:32:36.816Z,15.66
2022-10-18T07:35:03.679Z,15.53
2022-10-18T07:37:30.412Z,15.56
2022-10-18T07:39:56.886Z,15.68
2022-10-18T07:42:23.422Z,15.79
2022-10-18T07:44:49.895Z,15.70
2022-10-18T07:47:16.344Z,15.65
2022-10-18T07:49:42.782Z,15.52
2022-10-18T07:52:09.256Z,15.48
2022-10-18T07:54:35.760Z,15.66
2022-10-18T07:57:04.222Z,15.64
2022-10-18T07:59:30.705Z,15.74
2022-10-18T08:01:57.179Z,15.69
2022-10-18T08:04:23.645Z,15.52
2022-10-18T08:06:50.137Z,15.57
2022-10-18T08:09:16.571Z,15.58
2022-10-18T08:11:43.063Z,15.49
2022-10-18T08:14:09.501Z,15.60
2022-10-18T08:16:35.944Z,15.68
2022-10-18T08:19:02.682Z,15.52
2022-10-18T08:21:29.151Z,15.60
2022-10-18T08:23:55.632Z,15.70
2022-10-18T08:26:22.908Z,15.63
2022-10-18T08:29:03.616Z,15.82
2022-10-18T08:31:36.312Z,15.59
2022-10-18T08:34:02.782Z,15.75
2022-10-18T08:36:29.289Z,15.75
2022-10-18T08:38:55.713Z,15.74
2022-10-18T08:41:31.004Z,15.85
2022-10-18T08:44:07.430Z,15.96
2022-10-18T08:46:36.089Z,15.88
2022-10-18T08:49:03.568Z,16.03
2022-10-18T08:51:35.735Z,15.93
2022-10-18T08:54:06.726Z,16.06
2022-10-18T08:56:33.989Z,16.07
2022-10-18T08:59:02.705Z,16.21
2022-10-18T09:01:42.981Z,16.18
2022-10-18T09:04:37.174Z,16.05
2022-10-18T09:07:28.425Z,15.86
2022-10-18T09:10:02.224Z,15.83
2022-10-18T09:12:50.454Z,16.06
2022-10-18T09:15:44.905Z,16.14
2022-10-18T09:18:27.263Z,16.08
2022-10-18T09:20:54.596Z,16.12
2022-10-18T09:23:23.136Z,16.12
2022-10-18T09:26:03.362Z,16.40
2022-10-18T09:28:45.092Z,16.67
2022-10-18T09:31:29.111Z,16.44
2022-10-18T09:34:05.662Z,16.31
2022-10-18T09:36:37.821Z,16.33
2022-10-18T09:39:30.961Z,16.54
2022-10-18T09:42:05.991Z,17.15
2022-10-18T09:44:42.107Z,17.47
2022-10-18T09:47:16.871Z,18.14
2022-10-18T09:49:46.372Z,17.40
2022-10-18T09:52:19.842Z,17.14
2022-10-18T09:55:01.431Z,17.45
2022-10-18T09:57:29.848Z,17.79
2022-10-18T09:59:57.883Z,17.51
2022-10-18T10:02:24.569Z,17.63
2022-10-18T10:04:51.978Z,17.67
2022-10-18T10:07:21.962Z,17.80
2022-10-18T10:09:59.915Z,17.90
2022-10-18T10:12:28.824Z,17.76
2022-10-18T10:14:55.576Z,18.02
2022-10-18T10:17:26.481Z,17.48
2022-10-18T10:20:17.621Z,17.29
2022-10-18T10:22:46.699Z,17.09
2022-10-18T10:25:31.968Z,16.72
2022-10-18T10:28:37.392Z,16.95
2022-10-18T10:31:19.152Z,16.77
2022-10-18T10:33:47.555Z,16.89
2022-10-18T10:36:19.420Z,17.02
2022-10-18T10:38:45.886Z,16.82
2022-10-18T10:41:20.426Z,16.89
2022-10-18T10:43:47.218Z,17.08
2022-10-18T10:46:15.544Z,16.90
2022-10-18T10:48:50.440Z,16.98
2022-10-18T10:51:34.610Z,17.00
2022-10-18T10:54:15.127Z,16.79
2022-10-18T10:57:11.262Z,16.72
2022-10-18T10:59:57.329Z,16.98
2022-10-18T11:02:31.628Z,17.05
2022-10-18T11:05:19.691Z,17.01
2022-10-18T11:07:46.571Z,17.02
2022-10-18T11:10:18.836Z,16.82
2022-10-18T11:12:46.719Z,16.65
2022-10-18T11:15:28.687Z,16.64
2022-10-18T11:18:14.657Z,16.69
2022-10-18T11:20:45.484Z,16.50
2022-10-18T11:23:13.920Z,16.60
2022-10-18T11:25:49.115Z,16.67
2022-10-18T11:28:51.156Z,16.58
2022-10-18T11:31:29.489Z,16.55
2022-10-18T11:34:14.989Z,16.83
2022-10-18T11:37:28.182Z,16.84
2022-10-18T11:40:25.826Z,16.45
2022-10-18T11:43:08.930Z,16.70
2022-10-18T11:45:45.027Z,16.65
2022-10-18T11:48:49.213Z,16.38
2022-10-18T11:51:34.080Z,16.31
2022-10-18T11:54:14.560Z,16.48
2022-10-18T11:56:42.986Z,16.51
2022-10-18T11:59:41.713Z,16.64
2022-10-18T12:02:24.926Z,16.58
2022-10-18T12:05:18.879Z,16.34
2022-10-18T12:07:52.804Z,16.49
2022-10-18T12:10:31.417Z,16.51
2022-10-18T12:13:08.462Z,16.15
2022-10-18T12:15:37.648Z,16.00
2022-10-18T12:18:17.662Z,15.82
2022-10-18T12:20:49.856Z,15.86
2022-10-18T12:23:36.973Z,15.80
2022-10-18T12:26:07.018Z,15.78
2022-10-18T12:29:10.984Z,15.81
2022-10-18T12:31:42.313Z,15.82
2022-10-18T12:34:31.362Z,15.91
2022-10-18T12:37:14.636Z,15.78
2022-10-18T12:40:20.241Z,15.74
2022-10-18T12:42:48.460Z,15.85
2022-10-18T12:45:35.698Z,15.89
2022-10-18T12:48:06.067Z,15.87
2022-10-18T12:50:38.744Z,15.68
2022-10-18T12:53:22.720Z,15.63
2022-10-18T12:55:51.560Z,15.50
2022-10-18T12:58:21.007Z,15.72
2022-10-18T13:00:47.915Z,15.72
2022-10-18T13:03:16.526Z,15.45
2022-10-18T13:05:54.678Z,15.44
2022-10-18T13:08:27.947Z,15.42
2022-10-18T13:11:12.782Z,15.42
2022-10-18T13:13:45.046Z,15.26
2022-10-18T13:16:52.860Z,15.50
2022-10-18T13:19:30.736Z,15.40
2022-10-18T13:22:19.089Z,15.41
2022-10-18T13:24:55.949Z,15.52
2022-10-18T13:27:37.544Z,15.60
2022-10-18T13:30:34.308Z,15.59
2022-10-18T13:33:15.590Z,15.53
2022-10-18T13:35:48.132Z,15.67
2022-10-18T13:38:32.883Z,15.30
2022-10-18T13:43:58.331Z,15.21
2022-10-18T13:46:44.954Z,15.35
2022-10-18T13:49:17.515Z,15.50
2022-10-18T13:51:55.431Z,15.70
2022-10-18T13:54:39.043Z,15.69
2022-10-18T13:57:17.473Z,15.43
2022-10-18T13:59:53.703Z,15.35
2022-10-18T14:02:58.669Z,15.20
2022-10-18T14:06:11.666Z,15.10
2022-10-18T14:09:25.477Z,15.09
2022-10-18T14:12:09.868Z,15.32
2022-10-18T14:14:51.513Z,15.15
2022-10-18T14:17:42.832Z,15.04
2022-10-18T14:20:34.594Z,15.12
2022-10-18T14:23:47.972Z,15.09
2022-10-18T14:26:19.862Z,14.95
2022-10-18T14:29:04.239Z,14.77
2022-10-18T14:31:30.797Z,14.84
2022-10-18T14:33:58.598Z,14.95
2022-10-18T14:36:31.362Z,14.71
2022-10-18T14:39:00.384Z,14.46
2022-10-18T14:41:28.882Z,14.58
2022-10-18T14:44:14.010Z,14.58
2022-10-18T14:46:48.976Z,14.61
2022-10-18T14:49:16.143Z,14.41
2022-10-18T14:51:43.699Z,14.34
2022-10-18T14:54:18.277Z,14.32
2022-10-18T14:56:45.053Z,14.35
2022-10-18T14:59:17.057Z,14.38
2022-10-18T15:02:01.672Z,14.24
2022-10-18T15:04:33.014Z,14.12
2022-10-18T15:07:01.937Z,14.32
2022-10-18T15:12:02.610Z,14.43
2022-10-18T15:14:29.555Z,14.37
2022-10-18T15:17:03.031Z,14.38
2022-10-18T15:19:35.712Z,14.20
2022-10-18T15:22:30.940Z,14.13
2022-10-18T15:25:05.939Z,14.00
2022-10-18T15:27:36.288Z,13.93
2022-10-18T15:30:17.061Z,14.03
2022-10-18T15:32:51.902Z,14.13
2022-10-18T15:35:32.626Z,14.10
2022-10-18T15:38:14.379Z,13.85
2022-10-18T15:40:41.591Z,13.93
2022-10-18T15:43:23.357Z,13.86
2022-10-18T15:45:54.096Z,13.80
2022-10-18T15:48:30.626Z,13.67
2022-10-18T15:51:09.061Z,13.94
2022-10-18T15:53:42.705Z,13.98
2022-10-18T15:56:44.812Z,13.82
2022-10-18T15:59:38.600Z,13.79
2022-10-18T16:02:11.774Z,13.48
2022-10-18T16:04:38.225Z,13.53
2022-10-18T16:07:04.674Z,13.64
2022-10-18T16:09:31.116Z,13.58
2022-10-18T16:11:58.425Z,13.45
2022-10-18T16:14:26.354Z,13.50
2022-10-18T16:16:54.962Z,13.35
2022-10-18T16:19:22.820Z,13.22
2022-10-18T16:21:50.619Z,13.25
2022-10-18T16:24:17.345Z,13.30
2022-10-18T16:26:43.798Z,13.21
2022-10-18T16:29:13.911Z,13.17
2022-10-18T16:31:40.503Z,13.20
2022-10-18T16:34:10.684Z,13.19
2022-10-18T16:36:38.387Z,13.08
2022-10-18T16:39:09.379Z,13.08
2022-10-18T16:41:35.867Z,13.20
2022-10-18T16:44:02.328Z,13.11
2022-10-18T16:46:30.749Z,13.04
2022-10-18T16:48:57.435Z,12.94
2022-10-18T16:51:24.304Z,13.07
2022-10-18T16:53:51.108Z,13.11
2022-10-18T16:56:19.954Z,13.01
2022-10-18T16:58:47.359Z,12.92
2022-10-18T17:01:16.458Z,13.11
2022-10-18T17:03:43.650Z,13.20
2022-10-18T17:06:22.557Z,12.95
2022-10-18T17:08:50.837Z,13.13
2022-10-18T17:11:17.834Z,13.06
2022-10-18T17:13:44.590Z,12.94
2022-10-18T17:16:31.759Z,12.99
2022-10-18T17:19:01.275Z,12.91
2022-10-18T17:21:28.698Z,12.87
2022-10-18T17:23:55.284Z,12.73
2022-10-18T17:26:28.734Z,12.84
2022-10-18T17:28:59.415Z,12.77
2022-10-18T17:31:26.008Z,12.78
2022-10-18T17:33:54.670Z,12.82
2022-10-18T17:36:21.616Z,12.83
2022-10-18T17:38:51.936Z,12.70
2022-10-18T17:41:18.680Z,12.71
2022-10-18T17:43:47.632Z,12.63
2022-10-18T17:46:16.318Z,12.62
2022-10-18T17:48:43.123Z,12.54
2022-10-18T17:51:10.974Z,12.59
2022-10-18T17:53:37.637Z,12.48
2022-10-18T17:56:05.185Z,12.33
2022-10-18T17:58:32.263Z,12.35
2022-10-18T18:01:11.702Z,12.40
2022-10-18T18:03:38.531Z,12.44
2022-10-18T18:06:33.721Z,12.40
2022-10-18T18:09:04.872Z,12.37
2022-10-18T18:11:31.356Z,12.21
2022-10-18T18:13:58.618Z,12.20
2022-10-18T18:16:27.588Z,12.12
2022-10-18T18:18:56.167Z,12.07
2022-10-18T18:21:23.322Z,12.00
2022-10-18T18:23:50.570Z,12.08
2022-10-18T18:26:17.958Z,12.15
2022-10-18T18:28:44.587Z,12.05
2022-10-18T18:31:19.682Z,12.10
2022-10-18T18:33:46.460Z,12.16
2022-10-18T18:36:13.030Z,12.09
2022-10-18T18:38:42.370Z,11.93
2022-10-18T18:41:28.416Z,12.01
2022-10-18T18:44:01.809Z,11.84
2022-10-18T18:46:30.076Z,12.01
2022-10-18T18:48:57.673Z,12.13
2022-10-18T18:51:27.150Z,12.13
2022-10-18T18:53:53.706Z,12.29
2022-10-18T18:56:22.993Z,12.16
2022-10-18T18:58:49.698Z,12.18
2022-10-18T19:01:17.387Z,12.35
2022-10-18T19:03:44.874Z,12.26
2022-10-18T19:06:15.718Z,12.22
2022-10-18T19:08:44.918Z,12.32
2022-10-18T19:11:21.889Z,12.34
2022-10-18T19:13:49.053Z,12.35
2022-10-18T19:16:27.463Z,12.40
2022-10-18T19:19:01.004Z,12.35
2022-10-18T19:21:29.720Z,12.44
2022-10-18T19:23:57.519Z,12.49
2022-10-18T19:26:25.980Z,12.54
2022-10-18T19:28:52.544Z,12.51
2022-10-18T19:31:19.371Z,12.60
2022-10-18T19:33:55.598Z,12.46
2022-10-18T19:36:25.393Z,12.49
2022-10-18T19:38:51.999Z,12.51
2022-10-18T19:41:18.871Z,12.48
2022-10-18T19:43:45.355Z,12.47
2022-10-18T19:46:13.150Z,12.53
2022-10-18T19:48:39.711Z,12.43
2022-10-18T19:51:09.375Z,12.50
2022-10-18T19:53:36.501Z,12.58
2022-10-18T19:56:04.656Z,12.64
2022-10-18T19:58:31.474Z,12.66
2022-10-18T20:00:58.157Z,12.72
2022-10-18T20:03:25.012Z,12.55
2022-10-18T20:05:56.449Z,12.43
2022-10-18T20:08:23.762Z,12.65
2022-10-18T20:10:50.469Z,12.47
2022-10-18T20:13:17.079Z,12.58
2022-10-18T20:15:47.738Z,12.59
2022-10-18T20:18:14.558Z,12.65
2022-10-18T20:20:44.523Z,12.63
2022-10-18T20:23:14.403Z,12.69
2022-10-18T20:25:41.014Z,12.70
2022-10-18T20:28:07.534Z,12.83
2022-10-18T20:30:34.119Z,12.67
2022-10-18T20:33:00.600Z,12.67
2022-10-18T20:35:27.176Z,12.61
2022-10-18T20:37:53.629Z,12.48
2022-10-18T20:40:20.083Z,12.65
2022-10-18T20:42:46.548Z,12.62
2022-10-18T20:45:13.094Z,12.74
2022-10-18T20:47:39.525Z,12.72
2022-10-18T20:50:06.511Z,12.73
2022-10-18T20:52:33.008Z,12.77
2022-10-18T20:54:59.439Z,12.74
2022-10-18T20:57:25.987Z,12.65
2022-10-18T20:59:52.429Z,12.54
2022-10-18T21:02:18.863Z,12.51
2022-10-18T21:04:45.300Z,12.55
2022-10-18T21:07:11.752Z,12.68
2022-10-18T21:09:38.174Z,12.42
2022-10-18T21:12:04.964Z,12.50
2022-10-18T21:14:31.449Z,12.64
2022-10-18T21:16:57.898Z,12.55
2022-10-18T21:19:26.595Z,12.57
2022-10-18T21:21:57.343Z,12.64
2022-10-18T21:24:24.634Z,12.47
2022-10-18T21:26:51.219Z,12.62
2022-10-18T21:29:22.002Z,12.57
2022-10-18T21:31:49.710Z,12.62
2022-10-18T21:34:17.493Z,12.62
2022-10-18T21:36:46.243Z,12.64
2022-10-18T21:39:15.318Z,12.46
2022-10-18T21:41:45.178Z,12.48
2022-10-18T21:44:12.094Z,12.50
2022-10-18T21:46:39.615Z,12.50
2022-10-18T21:49:07.016Z,12.43
2022-10-18T21:51:33.493Z,12.50
2022-10-18T21:53:59.994Z,12.61
2022-10-18T21:56:28.756Z,12.67
2022-10-18T21:58:55.450Z,12.55
2022-10-18T22:01:33.515Z,12.45
2022-10-18T22:04:01.285Z,12.49
2022-10-18T22:06:30.237Z,12.43
2022-10-18T22:08:58.949Z,12.58
2022-10-18T22:11:29.528Z,12.57
2022-10-18T22:13:56.458Z,12.47
2022-10-18T22:16:23.602Z,12.25
2022-10-18T22:18:50.683Z,12.21
2022-10-18T22:21:18.744Z,12.24
2022-10-18T22:23:47.339Z,12.38
2022-10-18T22:26:20.477Z,12.44
2022-10-18T22:28:47.086Z,12.41
2022-10-18T22:31:18.947Z,12.34
2022-10-18T22:33:45.628Z,12.34
2022-10-18T22:36:12.856Z,12.36
2022-10-18T22:38:39.759Z,12.34
2022-10-18T22:41:07.880Z,12.34
2022-10-18T22:43:34.712Z,12.36
2022-10-18T22:46:09.798Z,12.47
2022-10-18T22:48:36.422Z,12.38
2022-10-18T22:51:03.494Z,12.46
2022-10-18T22:53:30.175Z,12.45
2022-10-18T22:55:56.640Z,12.44
2022-10-18T22:58:23.402Z,12.33
2022-10-18T23:00:50.267Z,12.39
2022-10-18T23:03:17.906Z,12.46
2022-10-18T23:05:46.048Z,12.38
2022-10-18T23:08:14.027Z,12.39
2022-10-18T23:10:41.727Z,12.30
2022-10-18T23:13:08.861Z,12.20
2022-10-18T23:15:35.726Z,12.15
2022-10-18T23:18:02.218Z,12.24
2022-10-18T23:20:28.672Z,12.15
2022-10-18T23:22:55.414Z,12.19
2022-10-18T23:25:21.951Z,12.24
2022-10-18T23:27:49.524Z,12.09
2022-10-18T23:30:17.815Z,12.10
2022-10-18T23:32:44.249Z,12.12
2022-10-18T23:35:10.713Z,12.13
2022-10-18T23:37:37.409Z,12.09
2022-10-18T23:40:04.407Z,12.03
2022-10-18T23:42:30.835Z,12.01
2022-10-18T23:44:57.289Z,12.10
2022-10-18T23:47:23.760Z,12.10
2022-10-18T23:49:50.215Z,12.03
2022-10-18T23:52:17.019Z,11.93
2022-10-18T23:57:10.780Z,11.90
2022-10-18T23:59:37.279Z,11.89
